Time;durP1;ratioP1;P1;durP2;ratioP2;P2;SDS_P1;SDS_P2;PMS_P1;PMS_P2;Temp;Humidity;BMP_temperature;BMP_pressure;BME280_temperature;BME280_humidity;BME280_pressure;Samples;Min_cycle;Max_cycle;Signal;HPM_P1;HPM_P2
2022/03/15 00:01:43;;;;;;;27.50;12.60;;;;;;;4.69;32.56;100506.16;106245;1272;106871;-71
2022/03/15 00:04:12;;;;;;;26.20;13.00;;;;;;;4.69;32.70;100505.47;106230;1273;97925;-71
2022/03/15 00:06:41;;;;;;;29.90;13.40;;;;;;;4.68;32.57;100504.96;106233;1273;95913;-72
2022/03/15 00:09:09;;;;;;;28.20;12.70;;;;;;;4.68;32.52;100500.59;106130;1273;111420;-72
2022/03/15 00:11:40;;;;;;;27.50;12.30;;;;;;;4.68;32.64;100497.60;106144;1273;97886;-72
2022/03/15 00:14:14;;;;;;;27.50;12.70;;;;;;;4.68;32.58;100494.23;106124;1273;107804;-71
2022/03/15 00:16:43;;;;;;;25.80;12.40;;;;;;;4.69;32.73;100489.30;106110;1273;97849;-72
2022/03/15 00:19:13;;;;;;;29.00;13.10;;;;;;;4.68;32.61;100490.90;106196;1272;95477;-72
2022/03/15 00:21:41;;;;;;;26.30;11.60;;;;;;;4.68;32.68;100493.02;106118;1273;111776;-72
2022/03/15 00:24:11;;;;;;;28.80;12.50;;;;;;;4.66;32.89;100495.36;106147;1273;98046;-71
2022/03/15 00:26:40;;;;;;;26.20;12.60;;;;;;;4.65;32.79;100488.69;106075;1273;107799;-72
2022/03/15 00:29:10;;;;;;;26.10;11.90;;;;;;;4.64;32.81;100492.41;106074;1273;97866;-71
2022/03/15 00:31:39;;;;;;;26.80;12.60;;;;;;;4.62;32.76;100483.67;106158;1273;97902;-69
2022/03/15 00:34:08;;;;;;;25.10;11.20;;;;;;;4.60;32.85;100477.39;106045;1273;111604;-71
2022/03/15 00:36:37;;;;;;;24.40;12.30;;;;;;;4.59;32.98;100474.77;106101;1273;95260;-72
2022/03/15 00:39:07;;;;;;;26.50;12.80;;;;;;;4.58;32.92;100475.53;106131;1273;107761;-71
2022/03/15 00:41:35;;;;;;;27.40;11.50;;;;;;;4.57;32.78;100470.08;106089;1273;97866;-71
2022/03/15 00:44:05;;;;;;;26.10;11.60;;;;;;;4.56;32.95;100472.04;106103;1274;97984;-71
2022/03/15 00:46:33;;;;;;;26.00;11.40;;;;;;;4.56;32.89;100474.34;106137;1273;112707;-70
2022/03/15 00:49:03;;;;;;;24.30;11.30;;;;;;;4.56;33.10;100473.09;106127;1273;97879;-72
2022/03/15 00:51:33;;;;;;;25.70;11.60;;;;;;;4.56;32.98;100472.56;106111;1272;106818;-72
2022/03/15 00:54:03;;;;;;;25.60;11.10;;;;;;;4.55;33.00;100472.42;106125;1273;97667;-72
2022/03/15 00:56:31;;;;;;;25.10;12.00;;;;;;;4.53;33.19;100469.67;106132;1273;95191;-71
2022/03/15 00:58:59;;;;;;;26.40;11.60;;;;;;;4.52;32.99;100472.69;106134;1273;111438;-71
2022/03/15 01:01:27;;;;;;;28.60;12.00;;;;;;;4.51;33.13;100467.08;106150;1273;97976;-72
2022/03/15 01:03:56;;;;;;;26.00;11.70;;;;;;;4.49;33.14;100471.70;106146;1273;107421;-72
2022/03/15 01:06:24;;;;;;;24.30;10.90;;;;;;;4.48;33.05;100473.83;106166;1273;97877;-73
2022/03/15 01:08:53;;;;;;;23.70;10.70;;;;;;;4.48;33.14;100470.84;106102;1273;97143;-72
2022/03/15 01:11:21;;;;;;;27.60;11.10;;;;;;;4.49;32.94;100468.20;106164;1273;111403;-74
2022/03/15 01:13:49;;;;;;;25.90;11.60;;;;;;;4.48;33.18;100463.82;106191;1273;98588;-73
2022/03/15 01:16:17;;;;;;;27.10;11.90;;;;;;;4.47;32.96;100461.39;106054;1273;107707;-73
2022/03/15 01:18:46;;;;;;;25.50;11.60;;;;;;;4.45;33.11;100463.89;106091;1272;97942;-73
2022/03/15 01:21:14;;;;;;;26.00;12.00;;;;;;;4.44;33.25;100470.08;106228;1273;97835;-74
2022/03/15 01:23:42;;;;;;;25.60;11.30;;;;;;;4.43;33.13;100472.02;106114;1273;111874;-74
2022/03/15 01:26:10;;;;;;;25.30;11.40;;;;;;;4.41;33.20;100469.43;106196;1273;97876;-74
2022/03/15 01:28:38;;;;;;;29.70;12.90;;;;;;;4.42;33.32;100467.31;106180;1273;107787;-73
2022/03/15 01:31:07;;;;;;;28.00;12.10;;;;;;;4.38;33.44;100465.11;106121;1273;96486;-70
2022/03/15 01:33:35;;;;;;;28.10;12.90;;;;;;;4.33;33.32;100462.60;106042;1273;95283;-71
2022/03/15 01:36:03;;;;;;;25.20;11.30;;;;;;;4.31;33.19;100461.77;106110;1273;111449;-72
2022/03/15 01:38:34;;;;;;;25.60;10.80;;;;;;;4.30;33.34;100455.84;106100;1273;95693;-72
2022/03/15 01:41:02;;;;;;;28.80;11.60;;;;;;;4.29;33.45;100454.45;106088;1273;107781;-73
2022/03/15 01:43:29;;;;;;;23.40;10.60;;;;;;;4.28;33.26;100457.64;106160;1273;97867;-72
2022/03/15 01:45:57;;;;;;;24.40;11.10;;;;;;;4.26;33.36;100457.52;106139;1273;97947;-72
2022/03/15 01:48:25;;;;;;;25.70;10.70;;;;;;;4.24;33.19;100457.58;106141;1273;111347;-74
2022/03/15 01:50:53;;;;;;;25.20;10.60;;;;;;;4.20;33.20;100457.31;106067;1273;97983;-74
2022/03/15 01:53:22;;;;;;;27.20;11.30;;;;;;;4.19;33.54;100455.75;106120;1273;107748;-72
2022/03/15 01:55:50;;;;;;;24.60;10.80;;;;;;;4.16;33.43;100453.02;106042;1273;95377;-75
2022/03/15 01:58:18;;;;;;;24.20;11.60;;;;;;;4.13;33.65;100455.88;106051;1273;97860;-74
2022/03/15 02:00:46;;;;;;;26.70;11.60;;;;;;;4.10;33.51;100453.31;106140;1273;110829;-72
2022/03/15 02:03:15;;;;;;;25.70;10.20;;;;;;;4.08;33.50;100452.65;106174;1273;95182;-71
2022/03/15 02:05:43;;;;;;;22.40;10.10;;;;;;;4.09;33.78;100450.34;106201;1273;107688;-71
2022/03/15 02:08:16;;;;;;;27.40;11.60;;;;;;;4.09;33.52;100449.99;106168;1273;97954;-71
2022/03/15 02:10:44;;;;;;;25.40;11.10;;;;;;;4.09;33.89;100448.97;106160;1273;97957;-72
2022/03/15 02:13:12;;;;;;;25.80;10.80;;;;;;;4.06;33.96;100444.65;106129;1273;111436;-70
2022/03/15 02:15:40;;;;;;;26.30;11.30;;;;;;;4.06;33.78;100443.09;106152;1273;97870;-70
2022/03/15 02:18:08;;;;;;;31.80;12.20;;;;;;;4.05;33.76;100442.73;106113;1273;107656;-71
2022/03/15 02:20:37;;;;;;;27.70;11.20;;;;;;;4.05;33.76;100445.73;106169;1273;95928;-72
2022/03/15 02:23:06;;;;;;;25.50;11.50;;;;;;;4.00;34.19;100439.86;106150;1273;98007;-71
2022/03/15 02:25:34;;;;;;;26.70;12.00;;;;;;;3.93;33.85;100445.46;106110;1273;112370;-73
2022/03/15 02:28:02;;;;;;;27.90;12.40;;;;;;;3.84;34.02;100446.02;106139;1273;96489;-74
2022/03/15 02:30:30;;;;;;;25.80;11.30;;;;;;;3.75;34.07;100441.83;106145;1273;106688;-73
2022/03/15 02:33:01;;;;;;;28.40;12.20;;;;;;;3.68;34.16;100449.19;106110;1273;95278;-74
2022/03/15 02:35:29;;;;;;;29.10;12.70;;;;;;;3.62;34.25;100445.29;106177;1273;96586;-72
2022/03/15 02:37:57;;;;;;;26.50;11.80;;;;;;;3.60;34.50;100447.08;106162;1273;111374;-73
2022/03/15 02:40:27;;;;;;;28.30;11.50;;;;;;;3.58;34.63;100447.31;106172;1274;97913;-73
2022/03/15 02:42:55;;;;;;;27.30;12.10;;;;;;;3.55;34.70;100443.16;106195;1273;107526;-72
2022/03/15 02:45:26;;;;;;;26.20;12.10;;;;;;;3.52;34.60;100446.02;106151;1273;97962;-73
2022/03/15 02:47:56;;;;;;;26.00;11.60;;;;;;;3.48;34.68;100453.11;106131;1273;96095;-72
2022/03/15 02:50:25;;;;;;;30.70;14.90;;;;;;;3.43;34.83;100452.18;106168;1273;110978;-72
2022/03/15 02:52:53;;;;;;;27.90;12.40;;;;;;;3.42;34.86;100452.90;106274;1273;97990;-72
2022/03/15 02:55:21;;;;;;;27.90;12.70;;;;;;;3.42;34.52;100457.81;106190;1273;107877;-73
2022/03/15 02:57:49;;;;;;;28.60;11.60;;;;;;;3.42;34.61;100456.40;106241;1272;97893;-73
2022/03/15 03:00:18;;;;;;;27.40;12.10;;;;;;;3.43;35.01;100459.02;106235;1273;95283;-73
2022/03/15 03:02:46;;;;;;;28.90;12.80;;;;;;;3.40;34.94;100457.84;106198;1273;111377;-73
2022/03/15 03:05:14;;;;;;;28.60;13.00;;;;;;;3.36;34.65;100459.69;106167;1273;97935;-74
2022/03/15 03:07:43;;;;;;;29.50;13.40;;;;;;;3.29;34.96;100460.34;106152;1273;107690;-73
2022/03/15 03:10:16;;;;;;;25.30;11.90;;;;;;;3.24;35.16;100457.98;106215;1273;96600;-70
2022/03/15 03:12:47;;;;;;;25.90;12.20;;;;;;;3.23;34.97;100463.27;106212;1273;97858;-72
2022/03/15 03:15:22;;;;;;;25.10;12.30;;;;;;;3.25;34.79;100463.77;106149;1273;111394;-73
2022/03/15 03:17:51;;;;;;;26.30;12.20;;;;;;;3.28;34.79;100466.14;106106;1273;98591;-72
2022/03/15 03:20:21;;;;;;;25.90;12.20;;;;;;;3.31;34.79;100466.27;106107;1273;107878;-73
2022/03/15 03:22:52;;;;;;;27.70;12.40;;;;;;;3.33;35.00;100465.02;106112;1273;96495;-71
2022/03/15 03:25:20;;;;;;;27.50;11.70;;;;;;;3.34;35.18;100464.80;106257;1273;97854;-73
2022/03/15 03:27:48;;;;;;;26.90;12.10;;;;;;;3.35;34.72;100464.08;106143;1273;111576;-73
2022/03/15 03:30:16;;;;;;;28.60;12.40;;;;;;;3.35;35.03;100467.23;106116;1273;96206;-73
2022/03/15 03:32:45;;;;;;;24.10;11.60;;;;;;;3.36;35.07;100469.85;106218;1273;107824;-72
2022/03/15 03:35:13;;;;;;;28.00;13.40;;;;;;;3.35;35.00;100466.54;105955;1273;203027;-73
2022/03/15 03:37:41;;;;;;;26.70;11.70;;;;;;;3.34;35.04;100468.48;106204;1273;97877;-71
2022/03/15 03:40:09;;;;;;;26.50;11.00;;;;;;;3.32;35.54;100463.80;106140;1273;110676;-72
2022/03/15 03:42:37;;;;;;;28.10;12.70;;;;;;;3.26;35.34;100459.17;106032;1274;97987;-73
2022/03/15 03:45:06;;;;;;;28.10;12.30;;;;;;;3.22;35.34;100457.33;106239;1272;105658;-74
2022/03/15 03:47:34;;;;;;;26.80;12.10;;;;;;;3.20;35.40;100455.79;106274;1273;97913;-73
2022/03/15 03:50:04;;;;;;;30.60;13.10;;;;;;;3.17;35.43;100461.46;106292;1273;95169;-72
2022/03/15 03:52:32;;;;;;;32.40;14.10;;;;;;;3.16;35.41;100458.51;106151;1273;111268;-73
2022/03/15 03:55:00;;;;;;;29.80;13.00;;;;;;;3.16;35.34;100456.92;106128;1273;97689;-72
2022/03/15 03:57:29;;;;;;;30.30;13.10;;;;;;;3.17;35.43;100458.48;106165;1272;107423;-72
2022/03/15 03:59:57;;;;;;;30.20;13.00;;;;;;;3.18;35.35;100460.74;106198;1273;95266;-71
2022/03/15 04:02:26;;;;;;;28.80;12.70;;;;;;;3.18;35.41;100464.08;106242;1273;97954;-73
2022/03/15 04:04:55;;;;;;;28.00;11.90;;;;;;;3.18;35.43;100461.45;106136;1273;111390;-73
2022/03/15 04:07:24;;;;;;;29.00;12.70;;;;;;;3.16;35.51;100461.32;106199;1273;96457;-74
2022/03/15 04:09:52;;;;;;;28.90;11.40;;;;;;;3.15;35.49;100464.14;106112;1273;107872;-72
2022/03/15 04:12:23;;;;;;;26.30;11.30;;;;;;;3.13;35.56;100461.89;106083;1273;97973;-73
2022/03/15 04:14:53;;;;;;;29.00;12.30;;;;;;;3.10;35.92;100465.62;106141;1272;96330;-74
2022/03/15 04:17:22;;;;;;;29.10;12.90;;;;;;;3.08;35.53;100471.27;106108;1273;111389;-72
2022/03/15 04:19:51;;;;;;;27.90;12.80;;;;;;;3.05;35.59;100470.98;106218;1273;97644;-71
2022/03/15 04:22:21;;;;;;;27.60;12.90;;;;;;;3.04;35.57;100470.65;106182;1273;106730;-74
2022/03/15 04:24:49;;;;;;;28.40;12.30;;;;;;;3.03;35.95;100468.57;106252;1273;97972;-74
2022/03/15 04:27:18;;;;;;;26.30;11.40;;;;;;;3.04;35.70;100470.30;106131;1273;97882;-71
2022/03/15 04:29:46;;;;;;;27.30;11.80;;;;;;;3.05;35.43;100470.98;106118;1273;111275;-73
2022/03/15 04:32:16;;;;;;;27.60;11.60;;;;;;;3.05;35.69;100468.89;106125;1273;97979;-72
2022/03/15 04:34:45;;;;;;;26.00;12.20;;;;;;;3.02;35.57;100469.11;106088;1273;107713;-73
2022/03/15 04:37:14;;;;;;;26.10;12.00;;;;;;;3.01;35.55;100470.36;106146;1273;97877;-72
2022/03/15 04:39:42;;;;;;;28.20;12.90;;;;;;;3.00;36.07;100467.76;106287;1273;97912;-73
2022/03/15 04:42:11;;;;;;;28.80;12.40;;;;;;;2.97;35.99;100475.17;106187;1273;110241;-73
2022/03/15 04:44:39;;;;;;;31.70;11.70;;;;;;;2.91;36.37;100476.85;106179;1273;97934;-73
2022/03/15 04:47:07;;;;;;;32.40;13.70;;;;;;;2.83;36.41;100475.07;106202;1273;107770;-74
2022/03/15 04:49:36;;;;;;;33.30;14.60;;;;;;;2.76;36.36;100476.59;106203;1273;96604;-73
2022/03/15 04:52:04;;;;;;;27.10;12.30;;;;;;;2.71;36.64;100472.98;106225;1273;97849;-73
2022/03/15 04:54:32;;;;;;;28.70;12.40;;;;;;;2.65;36.90;100472.05;106188;1272;112106;-73
2022/03/15 04:57:02;;;;;;;27.50;12.80;;;;;;;2.62;36.71;100471.41;106342;1273;95255;-73
2022/03/15 04:59:30;;;;;;;30.10;13.10;;;;;;;2.61;36.92;100470.03;106155;1273;107935;-75
2022/03/15 05:01:59;;;;;;;29.80;13.70;;;;;;;2.60;36.88;100471.80;106157;1273;97959;-74
2022/03/15 05:04:27;;;;;;;29.00;12.80;;;;;;;2.59;36.71;100475.50;106127;1274;98573;-73
2022/03/15 05:06:56;;;;;;;29.10;13.90;;;;;;;2.59;37.20;100470.05;106221;1272;111415;-73
2022/03/15 05:09:23;;;;;;;30.60;13.00;;;;;;;2.61;37.15;100470.91;106238;1273;95186;-73
2022/03/15 05:11:52;;;;;;;27.70;12.80;;;;;;;2.63;36.92;100476.65;106274;1273;107733;-73
2022/03/15 05:14:20;;;;;;;30.50;13.40;;;;;;;2.67;36.86;100470.95;106186;1273;96088;-74
2022/03/15 05:16:48;;;;;;;28.90;13.30;;;;;;;2.70;36.91;100474.59;106163;1273;95362;-73
2022/03/15 05:19:17;;;;;;;25.80;12.20;;;;;;;2.73;36.84;100475.25;106193;1273;110398;-72
2022/03/15 05:21:45;;;;;;;27.00;11.60;;;;;;;2.77;36.94;100473.61;106260;1273;95305;-73
2022/03/15 05:24:13;;;;;;;28.60;13.20;;;;;;;2.80;37.31;100468.83;106139;1273;108211;-73
2022/03/15 05:26:43;;;;;;;30.90;12.90;;;;;;;2.82;37.19;100467.20;106235;1271;97889;-72
2022/03/15 05:29:12;;;;;;;27.40;12.60;;;;;;;2.86;37.03;100463.98;106209;1273;96550;-73
2022/03/15 05:31:41;;;;;;;29.40;12.60;;;;;;;2.90;37.11;100465.83;106105;1272;110380;-73
2022/03/15 05:34:12;;;;;;;30.20;13.00;;;;;;;2.91;37.18;100461.60;106174;1273;95229;-74
2022/03/15 05:36:40;;;;;;;30.00;13.20;;;;;;;2.93;37.34;100463.67;106122;1273;107899;-74
2022/03/15 05:39:08;;;;;;;30.50;14.20;;;;;;;2.97;36.99;100463.95;106211;1273;97368;-74
2022/03/15 05:41:36;;;;;;;27.40;12.40;;;;;;;3.02;37.15;100465.80;106125;1273;97951;-73
2022/03/15 05:44:06;;;;;;;27.10;12.40;;;;;;;3.07;37.01;100466.38;106170;1273;111476;-73
2022/03/15 05:46:34;;;;;;;31.20;14.20;;;;;;;3.11;37.14;100467.52;106184;1273;97923;-74
2022/03/15 05:49:02;;;;;;;30.40;13.10;;;;;;;3.17;37.04;100467.42;106170;1273;107744;-75
2022/03/15 05:51:30;;;;;;;31.10;13.40;;;;;;;3.22;37.06;100466.80;106190;1273;97951;-73
2022/03/15 05:53:58;;;;;;;30.90;13.60;;;;;;;3.29;37.04;100471.04;106238;1273;97847;-74
2022/03/15 05:56:26;;;;;;;27.60;12.90;;;;;;;3.34;37.23;100466.57;106247;1273;112077;-73
2022/03/15 05:58:54;;;;;;;29.10;13.20;;;;;;;3.39;37.12;100475.57;106214;1273;95273;-73
2022/03/15 06:01:22;;;;;;;30.20;13.20;;;;;;;3.45;37.20;100479.15;106158;1272;107770;-72
2022/03/15 06:03:52;;;;;;;29.30;13.80;;;;;;;3.51;37.35;100480.95;106145;1273;97956;-73
2022/03/15 06:06:21;;;;;;;26.10;12.30;;;;;;;3.57;37.21;100480.82;106169;1273;97874;-74
2022/03/15 06:08:50;;;;;;;30.60;12.80;;;;;;;3.65;37.48;100480.48;106184;1273;111153;-73
2022/03/15 06:11:20;;;;;;;30.00;13.30;;;;;;;3.69;37.59;100472.85;106213;1273;96299;-73
2022/03/15 06:13:48;;;;;;;29.80;13.70;;;;;;;3.71;37.46;100469.81;106153;1273;107675;-74
2022/03/15 06:16:17;;;;;;;31.20;14.20;;;;;;;3.73;37.60;100465.40;106233;1273;95212;-72
2022/03/15 06:18:45;;;;;;;30.00;12.90;;;;;;;3.77;37.72;100466.36;106201;1273;95228;-74
2022/03/15 06:21:13;;;;;;;32.20;15.80;;;;;;;3.83;37.47;100473.41;106125;1273;110543;-74
2022/03/15 06:23:41;;;;;;;29.00;14.20;;;;;;;3.90;37.61;100467.63;106087;1273;97886;-73
2022/03/15 06:26:28;;;;;;;33.20;14.10;;;;;;;3.98;37.64;100464.13;106125;1273;107677;-73
2022/03/15 06:28:58;;;;;;;33.50;14.60;;;;;;;4.05;37.93;100462.21;106223;1273;96494;-75
2022/03/15 06:31:27;;;;;;;33.80;15.10;;;;;;;4.12;37.67;100461.88;106168;1273;97880;-74
2022/03/15 06:33:55;;;;;;;29.20;13.60;;;;;;;4.19;37.62;100462.77;106187;1273;111463;-74
2022/03/15 06:36:26;;;;;;;32.50;15.90;;;;;;;4.27;37.68;100465.73;106221;1273;96384;-74
2022/03/15 06:38:54;;;;;;;32.40;15.40;;;;;;;4.36;37.74;100470.79;106189;1273;107806;-74
2022/03/15 06:41:22;;;;;;;33.80;15.10;;;;;;;4.43;37.82;100470.80;106278;1273;97974;-73
2022/03/15 06:43:50;;;;;;;32.60;15.00;;;;;;;4.51;37.82;100469.02;106191;1273;96538;-74
2022/03/15 06:46:18;;;;;;;33.20;16.00;;;;;;;4.59;37.88;100467.77;106152;1272;111340;-74
2022/03/15 06:48:46;;;;;;;31.90;14.40;;;;;;;4.66;38.00;100472.33;106224;1273;97956;-73
2022/03/15 06:51:14;;;;;;;29.70;14.30;;;;;;;4.73;38.11;100468.45;106200;1273;107761;-74
2022/03/15 06:53:41;;;;;;;30.90;16.00;;;;;;;4.81;37.96;100473.88;106197;1273;98009;-74
2022/03/15 06:56:09;;;;;;;33.10;15.20;;;;;;;4.94;38.02;100477.58;106176;1273;97969;-73
2022/03/15 06:58:37;;;;;;;28.90;14.00;;;;;;;5.12;38.08;100483.95;106224;1273;111415;-73
2022/03/15 07:01:05;;;;;;;29.10;13.90;;;;;;;5.31;38.08;100486.61;106106;1273;97887;-74
2022/03/15 07:03:35;;;;;;;31.00;13.80;;;;;;;5.49;38.03;100481.00;106157;1273;106934;-74
2022/03/15 07:06:03;;;;;;;29.10;13.80;;;;;;;5.66;38.05;100478.38;106276;1273;97868;-75
2022/03/15 07:08:31;;;;;;;30.90;14.50;;;;;;;5.80;37.82;100477.80;106270;1273;97516;-75
2022/03/15 07:10:59;;;;;;;28.00;13.20;;;;;;;5.90;37.89;100482.62;106240;1273;111589;-76
2022/03/15 07:13:28;;;;;;;30.90;13.90;;;;;;;5.96;37.93;100476.79;106236;1273;97955;-73
2022/03/15 07:15:57;;;;;;;28.40;13.80;;;;;;;6.02;37.93;100479.45;106178;1272;108352;-74
2022/03/15 07:18:25;;;;;;;30.80;14.00;;;;;;;6.08;37.95;100486.67;106097;1273;97426;-72
2022/03/15 07:20:53;;;;;;;27.20;13.60;;;;;;;6.15;37.82;100483.79;106167;1273;97933;-74
2022/03/15 07:23:21;;;;;;;30.20;14.80;;;;;;;6.22;37.93;100480.21;106124;1273;111438;-73
2022/03/15 07:25:49;;;;;;;29.20;14.10;;;;;;;6.29;37.88;100475.98;106154;1272;97381;-74
2022/03/15 07:28:17;;;;;;;30.40;13.60;;;;;;;6.34;37.52;100481.08;106215;1273;107511;-72
2022/03/15 07:30:46;;;;;;;29.90;13.60;;;;;;;6.37;37.55;100479.20;106166;1273;97982;-74
2022/03/15 07:33:14;;;;;;;29.90;14.90;;;;;;;6.44;37.44;100480.93;106152;1273;95830;-74
2022/03/15 07:35:42;;;;;;;30.30;15.00;;;;;;;6.49;37.43;100480.94;106101;1273;111310;-75
2022/03/15 07:38:10;;;;;;;30.20;13.70;;;;;;;6.56;37.37;100475.41;106200;1273;95681;-74
2022/03/15 07:40:39;;;;;;;26.90;13.40;;;;;;;6.62;37.45;100477.00;106178;1273;107896;-73
2022/03/15 07:43:08;;;;;;;27.10;13.70;;;;;;;6.67;37.55;100479.83;106013;1274;97833;-74
2022/03/15 07:45:37;;;;;;;32.00;14.00;;;;;;;6.74;37.50;100481.86;106135;1273;97951;-74
2022/03/15 07:48:05;;;;;;;24.50;12.70;;;;;;;6.79;37.24;100479.94;106111;1273;111330;-72
2022/03/15 07:50:34;;;;;;;38.80;15.00;;;;;;;6.81;36.97;100472.27;106211;1273;95692;-74
2022/03/15 07:53:02;;;;;;;27.40;13.20;;;;;;;6.86;37.24;100467.20;106147;1273;107804;-73
2022/03/15 07:55:31;;;;;;;29.90;15.20;;;;;;;6.91;37.01;100466.33;106155;1273;96008;-74
2022/03/15 07:58:01;;;;;;;28.80;14.00;;;;;;;6.97;36.90;100468.05;106242;1273;97853;-74
2022/03/15 08:00:31;;;;;;;29.90;13.90;;;;;;;7.05;37.09;100469.52;106134;1273;111398;-73
2022/03/15 08:03:00;;;;;;;34.60;14.80;;;;;;;7.14;36.94;100463.90;106065;1273;95158;-74
2022/03/15 08:05:28;;;;;;;32.90;15.70;;;;;;;7.25;36.68;100461.91;105994;1273;107848;-73
2022/03/15 08:07:59;;;;;;;31.10;15.20;;;;;;;7.38;36.96;100460.23;106057;1273;97923;-73
2022/03/15 08:10:30;;;;;;;30.40;14.60;;;;;;;7.48;36.63;100460.02;106086;1273;95861;-73
2022/03/15 08:12:59;;;;;;;29.40;13.90;;;;;;;7.55;36.12;100466.12;106036;1273;112599;-75
2022/03/15 08:15:27;;;;;;;31.60;14.90;;;;;;;7.59;36.16;100462.60;105982;1273;97972;-74
2022/03/15 08:17:54;;;;;;;32.60;15.40;;;;;;;7.65;36.51;100457.80;105971;1273;107989;-74
2022/03/15 08:20:27;;;;;;;29.70;14.70;;;;;;;7.77;36.40;100455.58;106051;1273;97967;-74
2022/03/15 08:22:59;;;;;;;24.90;12.00;;;;;;;7.91;36.88;100451.33;106122;1272;96143;-72
2022/03/15 08:25:27;;;;;;;29.90;15.00;;;;;;;8.04;36.54;100450.64;106025;1273;111571;-73
2022/03/15 08:27:56;;;;;;;28.30;15.10;;;;;;;8.11;36.61;100447.17;106071;1273;97927;-75
2022/03/15 08:30:27;;;;;;;28.90;14.10;;;;;;;8.20;36.46;100441.85;106166;1273;107564;-74
2022/03/15 08:32:55;;;;;;;24.80;13.30;;;;;;;8.33;36.49;100439.56;106167;1273;95290;-75
2022/03/15 08:35:24;;;;;;;30.30;16.40;;;;;;;8.47;36.19;100441.47;106205;1273;95188;-75
2022/03/15 08:37:52;;;;;;;27.00;14.50;;;;;;;8.55;35.62;100443.84;106115;1273;111722;-74
2022/03/15 08:40:22;;;;;;;31.90;14.80;;;;;;;8.62;36.05;100437.70;106181;1273;95667;-73
2022/03/15 08:42:50;;;;;;;27.70;14.10;;;;;;;8.76;36.29;100434.63;106156;1273;107788;-73
2022/03/15 08:45:18;;;;;;;29.20;14.70;;;;;;;8.97;36.07;100436.72;106177;1273;97895;-73
2022/03/15 08:47:47;;;;;;;29.10;14.50;;;;;;;9.55;36.30;100427.77;106113;1273;97851;-74
2022/03/15 08:50:17;;;;;;;30.80;14.90;;;;;;;10.30;36.38;100427.54;106162;1273;111502;-73
2022/03/15 08:52:48;;;;;;;28.70;15.00;;;;;;;10.95;36.15;100425.88;106133;1273;95182;-74
2022/03/15 08:55:18;;;;;;;33.40;16.10;;;;;;;11.49;35.75;100427.45;105966;1274;107883;-73
2022/03/15 08:57:46;;;;;;;29.70;14.40;;;;;;;11.87;34.95;100427.81;106201;1273;97889;-73
2022/03/15 09:00:16;;;;;;;34.60;16.40;;;;;;;12.15;34.81;100425.95;106096;1273;97876;-73
2022/03/15 09:02:44;;;;;;;33.00;15.40;;;;;;;12.44;34.65;100425.70;106078;1273;111427;-73
2022/03/15 09:05:16;;;;;;;30.20;15.00;;;;;;;12.74;34.28;100422.52;106078;1273;98047;-74
2022/03/15 09:07:49;;;;;;;30.70;14.30;;;;;;;13.02;34.26;100420.77;106079;1273;105634;-76
2022/03/15 09:10:20;;;;;;;26.50;14.70;;;;;;;13.38;34.34;100418.80;105986;1276;98707;-74
2022/03/15 09:12:51;;;;;;;31.10;14.60;;;;;;;13.64;34.00;100420.75;106157;1273;97850;-73
2022/03/15 09:15:20;;;;;;;28.80;15.30;;;;;;;13.89;34.15;100418.08;106211;1273;111168;-73
2022/03/15 09:17:49;;;;;;;28.10;15.40;;;;;;;14.24;34.48;100420.41;106168;1273;95658;-73
2022/03/15 09:20:26;;;;;;;28.00;15.00;;;;;;;14.58;33.85;100422.84;106032;1273;107704;-73
2022/03/15 09:22:54;;;;;;;28.10;15.90;;;;;;;14.72;33.67;100417.61;106175;1273;97866;-73
2022/03/15 09:25:23;;;;;;;25.80;15.40;;;;;;;14.87;34.03;100424.77;106184;1273;97871;-73
2022/03/15 09:27:52;;;;;;;30.70;16.20;;;;;;;15.13;33.93;100425.36;106177;1273;111376;-73
2022/03/15 09:30:20;;;;;;;30.80;16.40;;;;;;;15.34;33.57;100419.92;106180;1273;95211;-73
2022/03/15 09:32:49;;;;;;;29.80;15.50;;;;;;;15.51;33.33;100414.48;106169;1273;107728;-73
2022/03/15 09:35:18;;;;;;;34.20;17.90;;;;;;;15.65;33.24;100411.48;106117;1273;97970;-73
2022/03/15 09:37:49;;;;;;;30.70;16.10;;;;;;;15.78;32.96;100408.92;106316;1273;97855;-73
2022/03/15 09:40:25;;;;;;;26.60;15.20;;;;;;;15.97;33.25;100410.27;106123;1273;111287;-71
2022/03/15 09:42:58;;;;;;;26.60;15.30;;;;;;;16.26;33.43;100406.34;106101;1274;97915;-74
2022/03/15 09:45:34;;;;;;;29.10;16.70;;;;;;;16.50;33.31;100402.42;106059;1274;109527;-73
2022/03/15 09:48:13;;;;;;;31.60;16.20;;;;;;;16.81;32.20;100397.48;106163;1273;97880;-73
2022/03/15 09:50:46;;;;;;;27.20;14.20;;;;;;;17.08;32.78;100392.06;106090;1270;97915;-74
2022/03/15 09:53:16;;;;;;;26.80;14.30;;;;;;;17.43;32.84;100386.74;106006;1274;111524;-74
2022/03/15 09:55:46;;;;;;;32.20;14.80;;;;;;;17.60;32.96;100386.85;106259;1273;97945;-74
2022/03/15 09:58:19;;;;;;;24.60;13.40;;;;;;;17.75;32.88;100385.81;106115;1273;107511;-73
2022/03/15 10:00:53;;;;;;;28.20;14.60;;;;;;;17.79;32.80;100387.44;106123;1274;97930;-72
2022/03/15 10:03:24;;;;;;;25.50;13.60;;;;;;;17.78;32.09;100383.80;106092;1273;97778;-73
2022/03/15 10:05:53;;;;;;;27.10;14.70;;;;;;;17.68;31.53;100386.73;106130;1273;111563;-74
2022/03/15 10:08:20;;;;;;;24.70;13.90;;;;;;;17.61;31.66;100385.66;106118;1273;97987;-73
2022/03/15 10:10:51;;;;;;;25.20;14.10;;;;;;;17.59;31.63;100382.09;106067;1273;108786;-73
2022/03/15 10:13:21;;;;;;;23.50;13.50;;;;;;;17.56;32.16;100380.52;106113;1273;98400;-73
2022/03/15 10:15:56;;;;;;;25.30;12.40;;;;;;;17.57;31.98;100379.89;106138;1272;96221;-72
2022/03/15 10:18:27;;;;;;;23.20;12.50;;;;;;;17.59;31.54;100382.11;106190;1273;111526;-73
2022/03/15 10:20:55;;;;;;;23.60;13.20;;;;;;;17.55;31.46;100384.38;106226;1273;97975;-73
2022/03/15 10:23:29;;;;;;;24.70;13.80;;;;;;;17.53;31.15;100383.85;106155;1273;106874;-72
2022/03/15 10:25:59;;;;;;;29.40;13.80;;;;;;;17.47;31.38;100376.25;106108;1273;96400;-73
2022/03/15 10:28:29;;;;;;;24.70;13.10;;;;;;;17.32;31.35;100370.63;106147;1273;97084;-72
2022/03/15 10:30:58;;;;;;;22.10;12.70;;;;;;;17.25;31.01;100362.91;106067;1273;111501;-71
2022/03/15 10:33:28;;;;;;;23.50;12.50;;;;;;;17.26;31.21;100362.13;106140;1273;97937;-72
2022/03/15 10:35:56;;;;;;;22.20;12.10;;;;;;;17.35;31.09;100361.59;106106;1273;107772;-72
2022/03/15 10:38:24;;;;;;;24.00;12.50;;;;;;;17.39;31.02;100357.28;106020;1274;97970;-72
2022/03/15 10:40:53;;;;;;;23.20;12.70;;;;;;;17.38;30.44;100351.25;106171;1273;98082;-69
2022/03/15 10:43:25;;;;;;;24.50;12.20;;;;;;;17.31;30.15;100351.14;106091;1273;111063;-70
2022/03/15 10:45:57;;;;;;;25.30;14.30;;;;;;;17.27;30.26;100344.64;106150;1273;95900;-72
2022/03/15 10:48:32;;;;;;;26.40;14.10;;;;;;;17.27;30.07;100344.29;106067;1273;107999;-72
2022/03/15 10:51:00;;;;;;;25.30;13.10;;;;;;;17.22;30.02;100337.36;106159;1273;97989;-74
2022/03/15 10:53:48;;;;;;;26.30;13.60;;;;;;;17.16;29.75;100332.64;106102;1273;97848;-74
2022/03/15 10:56:21;;;;;;;23.20;12.70;;;;;;;17.20;29.68;100326.55;106122;1273;111105;-73
2022/03/15 10:58:59;;;;;;;26.10;12.60;;;;;;;17.20;29.43;100319.91;106096;1273;97925;-73
2022/03/15 11:01:38;;;;;;;24.50;12.40;;;;;;;17.21;29.87;100316.45;106161;1273;108131;-74
2022/03/15 11:04:09;;;;;;;23.30;12.40;;;;;;;17.25;29.60;100312.37;106077;1273;97940;-73
2022/03/15 11:06:38;;;;;;;24.30;12.20;;;;;;;17.28;29.38;100305.16;106104;1274;96094;-71
2022/03/15 11:09:24;;;;;;;21.90;11.90;;;;;;;17.31;29.30;100302.77;106059;1273;111487;-73
2022/03/15 11:12:02;;;;;;;22.90;12.80;;;;;;;17.35;29.30;100299.33;106067;1273;97931;-73
2022/03/15 11:14:44;;;;;;;23.50;12.70;;;;;;;17.42;29.38;100288.41;106086;1274;107733;-72